EDT,Max TemperatureF,Mean TemperatureF,Min TemperatureF,Max Dew PointF,MeanDew PointF,Min DewpointF,Max Humidity, Mean Humidity, Min Humidity, Max Sea Level PressureIn, Mean Sea Level PressureIn, Min Sea Level PressureIn, Max VisibilityMiles, Mean VisibilityMiles, Min VisibilityMiles, Max Wind SpeedMPH, Mean Wind SpeedMPH, Max Gust SpeedMPH,PrecipitationIn, CloudCover, Events, WindDirDegrees
2013-7-1,83,77,70,70,69,67,100,79,58,30.00,29.92,29.86,10,10,5,15,7,22,0.01,4,Rain,164
2013-7-2,85,79,73,72,70,68,93,77,61,30.17,30.08,30.00,10,10,5,20,11,38,0.02,4,Rain,169
2013-7-3,83,78,73,72,70,69,87,76,65,30.25,30.21,30.17,10,10,10,16,8,13,T,5,Rain,176
2013-7-4,89,81,73,72,70,69,93,75,57,30.26,30.22,30.17,10,10,10,17,8,23,0.00,3,,177
2013-7-5,90,82,73,71,70,68,87,70,52,30.23,30.19,30.13,10,10,10,18,9,21,0.00,1,,183
2013-7-6,93,83,73,70,69,66,87,66,44,30.22,30.16,30.08,10,10,10,14,6,22,0.00,0,,187
2013-7-7,90,80,69,70,68,65,84,69,53,30.12,30.09,30.04,10,8,0,26,6,36,0.89,4,Fog-Rain-Thunderstorm,220
2013-7-8,85,77,68,69,67,63,100,76,51,30.14,30.10,30.06,10,9,2,15,6,18,0.00,3,,216
2013-7-9,81,77,72,72,70,67,90,80,69,30.15,30.10,30.03,10,8,2,12,5,14,0.12,5,Rain,184
2013-7-10,84,79,74,73,70,65,87,73,58,30.02,29.96,29.88,10,10,3,15,6,22,0.04,2,Rain,208
2013-7-11,84,78,71,68,65,61,90,71,51,29.96,29.94,29.88,10,10,10,14,5,17,0.00,3,,330
2013-7-12,77,72,66,67,65,63,100,85,69,30.10,30.04,29.97,10,9,4,16,7,21,0.15,7,Rain,357
2013-7-13,82,75,68,71,68,66,100,79,58,30.30,30.17,30.07,10,8,2,10,5,13,0.07,7,Rain,325
2013-7-14,89,81,73,72,70,66,93,72,50,30.37,30.33,30.30,10,10,9,15,7,20,0.00,3,,183
2013-7-15,94,83,71,71,70,67,93,67,41,30.35,30.30,30.23,10,10,9,12,4,15,0.00,0,,250
2013-7-16,94,85,75,73,69,63,87,62,36,30.30,30.26,30.22,10,10,7,13,5,17,0.00,2,,348
2013-7-17,95,85,74,73,69,63,93,65,36,30.27,30.21,30.13,10,10,7,14,4,20,0.00,1,,46
2013-7-18,96,86,75,75,72,70,94,69,43,30.16,30.10,30.04,10,9,5,12,3,15,0.00,0,,231
2013-7-19,96,87,78,75,71,66,85,64,42,30.05,29.98,29.88,10,7,0,13,6,20,0.00,3,Fog-Rain-Thunderstorm,225
2013-7-20,88,80,72,74,69,65,93,74,55,29.93,29.89,29.83,10,9,2,16,6,22,0.05,1,Rain-Thunderstorm,240
2013-7-21,83,77,70,71,69,63,97,80,63,29.99,29.96,29.93,10,9,2,7,1,8,0.06,2,Rain,231
2013-7-22,86,78,69,74,71,68,100,81,61,29.97,29.90,29.79,10,6,1,9,4,14,0.00,5,Rain-Thunderstorm,246
2013-7-23,85,78,70,72,69,64,100,76,51,29.79,29.74,29.69,10,6,0,20,9,24,0.01,5,Fog-Rain,242
2013-7-24,80,74,68,65,60,54,84,65,45,29.99,29.84,29.72,10,10,10,17,9,21,0.00,2,,311
2013-7-25,78,67,56,57,54,50,83,66,49,30.09,30.04,29.99,10,10,10,13,7,17,0.00,0,,11
2013-7-26,80,69,58,59,56,50,93,66,39,30.14,30.09,30.06,10,10,6,12,2,21,0.00,0,,183
2013-7-27,80,72,63,71,65,57,87,77,66,30.07,30.00,29.94,10,10,8,20,5,24,0.03,3,,169
2013-7-28,83,77,70,68,65,59,97,72,46,30.03,29.94,29.91,10,10,7,12,7,16,T,5,Rain-Thunderstorm,200
2013-7-29,79,70,60,57,54,50,73,55,37,30.20,30.12,30.04,10,10,10,13,6,17,0.00,2,,295
2013-7-30,79,69,59,59,56,54,87,65,43,30.27,30.21,30.18,10,10,9,15,3,20,0.00,1,,303
2013-7-31,79,71,63,66,63,59,93,78,62,30.19,30.12,30.03,10,10,7,13,3,17,0.00,5,Rain,182